echo '';

Nearby METAR Reports

 

ENRY - Rygge (nor-Afb), Norway
Distance from station: NV 23km
Oppdatert: 20/01/2019 20:50
Overskyet
Overskyet
 Vind fra varies
Vind: varies 4 km/h
Temperatur: -6°C
Duggpunkt: -7°C
Fuktighet: 93%
Barometer: 1016 hPa
Clouds: Overskyet
Visibility: 16 miles
Cloud details: Overskyet 1128 m
2019/01/20 19:50 ENRY 201950Z AUTO VRB02KT 9999NDV OVC037/// M06/M07 Q1016
ENTO - Torp (civ/Nor-Af, Norway
Distance from station: V 47km
Oppdatert: 20/01/2019 20:50
Hovedsaklig skyet
Hovedsaklig skyet
 Vind fra N
Vind: N 6 km/h
Temperatur: -3°C
Duggpunkt: -6°C
Fuktighet: 80%
Barometer: 1015 hPa
Clouds: Hovedsaklig skyet
Visibility: 10 km
Cloud details: Hovedsaklig skyet 1036 m
2019/01/20 19:50 ENTO 201950Z 01003KT 9999 BKN034 M03/M06 Q1015 NOSIG
 
ENSN - Skien/Geiterygge, Norway
Distance from station: V 87km
Oppdatert: 09/11/2015 09:50
NOT Current
Klart
Klart
 Vind fra SSV
Vind: SSV 19 km/h, Vindkast: 41 km/h
Temperatur: 7°C
Vindkjøling: 4°C
Duggpunkt: 3°C
Fuktighet: 76%
Barometer: 1000 hPa
Oversikt: Klart
Visibility: greater than 10 km
2015/11/09 08:50 ENSN 090850Z 20010G22KT 150V240 CAVOK 07/03 Q1000
ENGM - Oslo/Gardermoen, Norway
Distance from station: 0 107km
Oppdatert: 20/01/2019 20:50
Lett snø, Hovedsaklig skyet
Lett snø, Hovedsaklig skyet
 Vind fra calm
Vind: Stille
Temperatur: -12°C
Duggpunkt: -13°C
Fuktighet: 92%
Barometer: 1015 hPa
Oversikt: Lett snø
Clouds: Hovedsaklig skyet
Visibility: 3 km
Cloud details: Few Clouds 305 m
Hovedsaklig skyet 427 m
2019/01/20 19:50 ENGM 201950Z 00000KT 3400 -SN FEW010 BKN014 M12/M13 Q1015 TEMPO 7000 SCT014 BKN040
 
ENNO - Notodden, Norway
Distance from station: VNV 112km
Oppdatert: 20/01/2019 18:50
NOT Current
Hovedsaklig skyet
Hovedsaklig skyet
 Vind fra varies
Vind: varies 2 km/h
Temperatur: -6°C
Duggpunkt: -7°C
Fuktighet: 93%
Barometer: 1017 hPa
Clouds: Hovedsaklig skyet
Visibility: 10 km
Cloud details: Hovedsaklig skyet 1189 m
2019/01/20 17:50 ENNO 201750Z VRB01KT 9999 BKN039 M06/M07 Q1017
ESGT - Trollhattan (pvt, Sweden
Distance from station: SØ 125km
Oppdatert: 20/01/2019 20:50
Overskyet
Overskyet
 Vind fra SSØ
Vind: SSØ 7 km/h
Temperatur: -5°C
Vindkjøling: -8°C
Duggpunkt: -6°C
Fuktighet: 93%
Barometer: 1018 hPa
Clouds: Overskyet
Visibility: 10 km
Cloud details: Overskyet 1494 m
2019/01/20 19:50 ESGT 201950Z AUTO 16004KT 140V220 9999 OVC049/// M05/M06 Q1018
 
ESIB - Satenas (swe-Afb, Sweden
Distance from station: SØ 129km
Oppdatert: 20/01/2019 20:50
Overskyet
Overskyet
 Vind fra S
Vind: S 6 km/h
Temperatur: -6°C
Duggpunkt: -7°C
Fuktighet: 93%
Barometer: 1017 hPa
Clouds: Overskyet
Visibility: 10 km
Cloud details: Overskyet 1585 m
2019/01/20 19:50 ESIB 201950Z AUTO 18003KT 9999 OVC052/// M06/M07 Q1017
ESOK - Karlstad North, Sweden
Distance from station: ØNØ 129km
Oppdatert: 20/01/2019 20:50
Klart
Klart
 Vind fra NØ
Vind: NØ 6 km/h
Temperatur: -14°C
Duggpunkt: -15°C
Fuktighet: 92%
Barometer: 1016 hPa
Oversikt: Klart
Visibility: greater than 10 km
2019/01/20 19:50 ESOK 201950Z 04003KT CAVOK M14/M15 Q1016
 
ESGP - Goteborg/Save (a, Sweden
Distance from station: SSØ 169km
Oppdatert: 02/01/2017 11:20
NOT Current
Klart
Klart
 Vind fra calm
Vind: Stille
Temperatur: -2°C
Duggpunkt: -4°C
Fuktighet: 86%
Barometer: 1012 hPa
Clouds: Klart
Visibility: 10 km
2017/01/02 10:20 ESGP 021020Z AUTO 00000KT 9999 NCD M02/M04 Q1012
ESGG - Goteborg/Landvet, Sweden
Distance from station: SSØ 188km
Oppdatert: 20/01/2019 20:50
Klart
Klart
 Vind fra SSØ
Vind: SSØ 9 km/h
Temperatur: -3°C
Vindkjøling: -7°C
Duggpunkt: -5°C
Fuktighet: 86%
Barometer: 1017 hPa
Oversikt: Klart
Visibility: greater than 10 km
2019/01/20 19:50 ESGG 201950Z 16005KT CAVOK M03/M05 Q1017 R21/19//95
 
EKSN - Sindal Airport, Denmark
Distance from station: SSV 199km
Oppdatert: 18/01/2019 13:50
NOT Current
Klart
Klart
 Vind fra VNV
Vind: VNV 20 km/h
Temperatur: 3°C
Vindkjøling: -2°C
Duggpunkt: -3°C
Fuktighet: 65%
Barometer: 1012 hPa
Oversikt: Klart
Visibility: greater than 10 km
2019/01/18 12:50 EKSN 181250Z 29011KT CAVOK 03/M03 Q1012
ENCN - Kristiansand/Kje, Norway
Distance from station: VSV 209km
Oppdatert: 20/01/2019 20:50
Few Clouds
Few Clouds
 Vind fra ØNØ
Vind: ØNØ 6 km/h
Temperatur: -2°C
Duggpunkt: -3°C
Fuktighet: 93%
Barometer: 1016 hPa
Clouds: Few Clouds
Visibility: 10 km
Cloud details: Few Clouds 427 m
2019/01/20 19:50 ENCN 201950Z 06003KT 9999 FEW014 M02/M03 Q1016
 
ENFG - Fagernes/Leirin, Norway
Distance from station: NNV 220km
Oppdatert: 22/04/2018 10:50
NOT Current
Klart
Klart
 Vind fra S
Vind: S 13 km/h
Temperatur: 6°C
Vindkjøling: 3°C
Duggpunkt: -3°C
Fuktighet: 53%
Barometer: 1014 hPa
Oversikt: Klart
Visibility: greater than 10 km
2018/04/22 08:50 ENFG 220850Z 19007KT CAVOK 06/M03 Q1014
ESOE - Orebro (private), Sweden
Distance from station: Ø 225km
Oppdatert: 20/01/2019 20:50
Klart
Klart
 Vind fra SV
Vind: SV 13 km/h
Temperatur: -8°C
Vindkjøling: -13°C
Duggpunkt: -11°C
Fuktighet: 79%
Barometer: 1016 hPa
Clouds: Klart
Visibility: 10 km
2019/01/20 19:50 ESOE 201950Z AUTO 23007KT 9999 NCD M08/M11 Q1016
 
ESGJ - Jonkoping Airpor, Sweden
Distance from station: SØ 238km
Oppdatert: 20/01/2019 20:50
Klart
Klart
 Vind fra V
Vind: V 6 km/h
Temperatur: -9°C
Duggpunkt: -10°C
Fuktighet: 93%
Barometer: 1016 hPa
Oversikt: Klart
Visibility: greater than 10 km
2019/01/20 19:50 ESGJ 201950Z 26003KT CAVOK M09/M10 Q1016 R01/19//70
EKYT - Alborg, Denmark
Distance from station: SSV 248km
Oppdatert: 20/01/2019 20:50
Hovedsaklig skyet
Hovedsaklig skyet
 Vind fra SV
Vind: SV 11 km/h
Temperatur: 1°C
Vindkjøling: -2°C
Duggpunkt: 0°C
Fuktighet: 93%
Barometer: 1018 hPa
Clouds: Hovedsaklig skyet
Visibility: 6 km
Cloud details: Hovedsaklig skyet 3048 m
2019/01/20 19:50 EKYT 201950Z AUTO 22006KT 6000 BKN100/// 01/00 Q1018 R26L/290195
 
ESCF - Linkoping/Malmen, Sweden
Distance from station: ØSØ 272km
Oppdatert: 20/01/2019 20:50
Klart
Klart
 Vind fra V
Vind: V 9 km/h
Temperatur: -6°C
Vindkjøling: -11°C
Duggpunkt: -7°C
Fuktighet: 93%
Barometer: 1017 hPa
Clouds: Klart
Visibility: 10 km
2019/01/20 19:50 ESCF 201950Z AUTO 27005KT 9999 NCD M06/M07 Q1017
ESSD - Borlange (swe-Af, Sweden
Distance from station: ØNØ 279km
Oppdatert: 20/01/2019 20:50
Klart
Klart
 Vind fra VSV
Vind: VSV 19 km/h
Temperatur: -11°C
Vindkjøling: -19°C
Duggpunkt: -13°C
Fuktighet: 85%
Barometer: 1014 hPa
Clouds: Klart
Visibility: 10 km
2019/01/20 19:50 ESSD 201950Z AUTO 25010KT 9999 NCD M11/M13 Q1014
 
ESSL - Linkoping/Saab, Sweden
Distance from station: ØSØ 280km
Oppdatert: 20/01/2019 20:50
Klart
Klart
 Vind fra V
Vind: V 6 km/h
Temperatur: -5°C
Duggpunkt: -7°C
Fuktighet: 86%
Barometer: 1017 hPa
Oversikt: Klart
Visibility: greater than 10 km
2019/01/20 19:50 ESSL 201950Z 26003KT CAVOK M05/M07 Q1017
ESMT - Halmstad (swe-Af, Sweden
Distance from station: SSØ 303km
Oppdatert: 20/01/2019 20:50
Hovedsaklig skyet
Hovedsaklig skyet
 Vind fra calm
Vind: Stille
Temperatur: -1°C
Duggpunkt: -2°C
Fuktighet: 93%
Barometer: 1018 hPa
Clouds: Hovedsaklig skyet
Visibility: 10 km
Cloud details: Few Clouds 488 m
Delvis skyet 579 m
Hovedsaklig skyet 1189 m
2019/01/20 19:50 ESMT 201950Z 00000KT 9999 FEW016 SCT019 BKN039 M01/M02 Q1018